Time;durP1;ratioP1;P1;durP2;ratioP2;P2;SDS_P1;SDS_P2;PMS_P1;PMS_P2;Temp;Humidity;BMP_temperature;BMP_pressure;BME280_temperature;BME280_humidity;BME280_pressure;Samples;Min_cycle;Max_cycle;Signal;HPM_P1;HPM_P2
2022/05/21 00:00:39;;;;;;;11.63;9.35;;;12.90;99.90;;;;;;5051819;28;20055;-71
2022/05/21 00:03:05;;;;;;;16.00;8.90;;;12.90;99.90;;;;;;5036279;28;20029;-70
2022/05/21 00:05:33;;;;;;;13.05;8.93;;;13.00;99.90;;;;;;5055802;28;20475;-70
2022/05/21 00:08:00;;;;;;;14.70;9.57;;;13.00;99.90;;;;;;5056912;28;20122;-70
2022/05/21 00:10:32;;;;;;;11.07;8.73;;;13.00;99.90;;;;;;5055610;28;20075;-70
2022/05/21 00:13:01;;;;;;;11.13;9.20;;;13.00;99.90;;;;;;5038876;28;20049;-72
2022/05/21 00:15:29;;;;;;;11.93;9.10;;;12.90;99.90;;;;;;5056913;28;20025;-70
2022/05/21 00:17:55;;;;;;;15.27;9.32;;;12.90;99.90;;;;;;5056625;28;20020;-71
2022/05/21 00:20:52;;;;;;;13.57;9.52;;;12.90;99.90;;;;;;5056696;28;20021;-71
2022/05/21 00:23:10;;;;;;;13.80;9.00;;;12.80;99.90;;;;;;5056319;28;20503;-73
2022/05/21 00:25:36;;;;;;;11.60;9.45;;;12.80;99.90;;;;;;5055350;28;20025;-71
2022/05/21 00:28:01;;;;;;;12.25;8.95;;;12.80;99.90;;;;;;5056500;28;20029;-71
2022/05/21 00:30:27;;;;;;;10.15;7.80;;;12.80;99.90;;;;;;5055299;28;20021;-70
2022/05/21 00:32:55;;;;;;;9.55;8.43;;;12.80;99.90;;;;;;5055342;28;20502;-70
2022/05/21 00:35:21;;;;;;;13.40;7.22;;;12.80;99.90;;;;;;5056482;28;20048;-70
2022/05/21 00:37:46;;;;;;;13.52;8.38;;;12.80;99.90;;;;;;5038471;28;20475;-70
2022/05/21 00:40:12;;;;;;;15.95;8.18;;;12.80;99.90;;;;;;5056311;28;20024;-70
2022/05/21 00:42:45;;;;;;;11.55;8.07;;;12.70;99.90;;;;;;5038123;28;20052;-70
2022/05/21 00:45:12;;;;;;;14.82;8.68;;;12.70;99.90;;;;;;5038255;28;20025;-70
2022/05/21 00:47:38;;;;;;;15.90;8.10;;;12.60;99.90;;;;;;5056039;28;20029;-71
2022/05/21 00:50:07;;;;;;;16.45;9.45;;;12.70;99.90;;;;;;5056078;28;20032;-71
2022/05/21 00:52:34;;;;;;;15.48;9.55;;;12.60;99.90;;;;;;5054771;28;20029;-71
2022/05/21 00:55:06;;;;;;;15.27;10.02;;;12.60;99.90;;;;;;5056061;28;20021;-72
2022/05/21 00:57:36;;;;;;;20.33;10.95;;;12.60;99.90;;;;;;5054893;28;20451;-71
2022/05/21 01:00:10;;;;;;;15.80;10.88;;;12.50;99.90;;;;;;5054793;28;20393;-71
2022/05/21 01:02:44;;;;;;;18.13;12.13;;;12.40;99.90;;;;;;5055817;28;20028;-71
2022/05/21 01:05:13;;;;;;;21.30;12.32;;;12.40;99.90;;;;;;5037921;28;20021;-70
2022/05/21 01:07:41;;;;;;;19.05;13.65;;;12.40;99.90;;;;;;5054581;28;20071;-70
2022/05/21 01:10:08;;;;;;;20.20;14.45;;;12.30;99.90;;;;;;5054587;28;20493;-70
2022/05/21 01:12:38;;;;;;;21.17;13.80;;;12.30;99.90;;;;;;5054435;28;20491;-70
2022/05/21 01:15:10;;;;;;;24.77;14.43;;;12.30;99.90;;;;;;5054086;28;20036;-70
2022/05/21 01:17:37;;;;;;;20.20;15.05;;;12.30;99.90;;;;;;5054456;28;20447;-70
2022/05/21 01:20:11;;;;;;;20.58;15.82;;;12.40;99.90;;;;;;5055559;28;20471;-70
2022/05/21 01:22:54;;;;;;;24.95;15.70;;;12.40;99.90;;;;;;5054254;28;20029;-70
2022/05/21 01:25:22;;;;;;;26.92;17.13;;;12.50;99.90;;;;;;5055563;28;20368;-70
2022/05/21 01:27:50;;;;;;;25.33;16.63;;;12.50;99.90;;;;;;5055522;28;20518;-70
2022/05/21 01:30:18;;;;;;;25.38;16.35;;;12.60;99.90;;;;;;5055258;28;20028;-70
2022/05/21 01:32:46;;;;;;;28.10;16.90;;;12.60;99.90;;;;;;5054457;28;20083;-70
2022/05/21 01:35:12;;;;;;;23.65;17.17;;;12.60;99.90;;;;;;5054131;28;20021;-71
2022/05/21 01:37:39;;;;;;;28.50;19.75;;;12.60;99.90;;;;;;5055177;28;20464;-70
2022/05/21 01:40:07;;;;;;;30.17;20.20;;;12.70;99.90;;;;;;5053858;28;20467;-70
2022/05/21 01:42:33;;;;;;;32.78;20.75;;;12.60;99.90;;;;;;5053889;28;20064;-70
2022/05/21 01:44:59;;;;;;;34.78;21.98;;;12.60;99.90;;;;;;5055234;28;20455;-70
2022/05/21 01:47:24;;;;;;;32.72;22.73;;;12.60;99.90;;;;;;5055099;28;20052;-70
2022/05/21 01:49:51;;;;;;;28.40;21.55;;;12.50;99.90;;;;;;5055018;28;20029;-70
2022/05/21 01:52:17;;;;;;;36.10;23.63;;;12.50;99.90;;;;;;5053783;28;20049;-70
2022/05/21 01:54:43;;;;;;;34.97;23.23;;;12.50;99.90;;;;;;5053622;28;20032;-71
2022/05/21 01:57:09;;;;;;;34.83;22.27;;;12.50;99.90;;;;;;5054818;28;20032;-70
2022/05/21 01:59:36;;;;;;;37.50;22.95;;;12.40;99.90;;;;;;5054757;28;20035;-70
2022/05/21 02:02:01;;;;;;;31.55;21.40;;;12.40;99.90;;;;;;5054645;28;20025;-70
2022/05/21 02:04:27;;;;;;;34.90;21.80;;;12.40;99.90;;;;;;5054650;28;20414;-70
2022/05/21 02:06:53;;;;;;;34.58;21.00;;;12.40;99.90;;;;;;5053363;28;20021;-70
2022/05/21 02:09:18;;;;;;;31.80;20.70;;;12.30;99.90;;;;;;5053532;28;20044;-70
2022/05/21 02:11:45;;;;;;;31.63;18.65;;;12.30;99.90;;;;;;5053306;28;20045;-70
2022/05/21 02:14:11;;;;;;;31.08;19.73;;;12.20;99.90;;;;;;5054471;28;20017;-70
2022/05/21 02:16:37;;;;;;;31.05;19.65;;;12.20;99.90;;;;;;5054418;28;20395;-70
2022/05/21 02:19:06;;;;;;;32.85;19.30;;;12.10;99.90;;;;;;5054339;28;20020;-70
2022/05/21 02:21:33;;;;;;;32.50;19.58;;;12.10;99.90;;;;;;5052967;28;20025;-70
2022/05/21 02:23:59;;;;;;;33.38;21.15;;;12.10;99.90;;;;;;5054366;28;20052;-70
2022/05/21 02:26:24;;;;;;;36.35;20.77;;;12.00;99.90;;;;;;5052249;28;20063;-70
2022/05/21 02:28:50;;;;;;;34.13;21.55;;;12.00;99.90;;;;;;5054196;28;20021;-70
2022/05/21 02:31:16;;;;;;;33.42;20.90;;;11.90;99.90;;;;;;5054168;28;20059;-70
2022/05/21 02:33:41;;;;;;;35.97;20.40;;;12.00;99.90;;;;;;5054161;28;20033;-70
2022/05/21 02:36:08;;;;;;;33.88;19.85;;;11.90;99.90;;;;;;5052811;28;20029;-70
2022/05/21 02:39:31;;;;;;;32.53;20.17;;;11.90;99.90;;;;;;5052828;28;20115;-70
2022/05/21 02:41:19;;;;;;;35.25;20.52;;;11.90;99.90;;;;;;5053523;28;20041;-70
2022/05/21 02:43:46;;;;;;;31.02;18.90;;;11.80;99.90;;;;;;5052791;28;20585;-70
2022/05/21 02:46:12;;;;;;;34.58;19.90;;;11.90;99.90;;;;;;5052686;28;20021;-69
2022/05/21 02:48:37;;;;;;;30.63;18.90;;;11.90;99.90;;;;;;5052714;28;20163;-70
2022/05/21 02:51:03;;;;;;;28.75;18.02;;;11.90;99.90;;;;;;5053834;28;20495;-70
2022/05/21 02:53:29;;;;;;;29.33;18.27;;;11.90;99.90;;;;;;5053815;28;20021;-70
2022/05/21 02:55:55;;;;;;;25.65;16.60;;;12.00;99.90;;;;;;5052569;28;20025;-70
2022/05/21 02:58:22;;;;;;;27.98;17.13;;;12.00;99.90;;;;;;5053733;28;20017;-70
2022/05/21 03:00:47;;;;;;;25.75;15.70;;;12.00;99.90;;;;;;5052431;28;20116;-70
2022/05/21 03:03:14;;;;;;;29.85;15.48;;;12.00;99.90;;;;;;5053531;28;20112;-70
2022/05/21 03:05:40;;;;;;;26.88;16.13;;;12.00;99.90;;;;;;5035725;28;20472;-70
2022/05/21 03:10:54;;;;;;;22.20;14.73;;;12.10;99.90;;;;;;5053312;28;20082;-70
2022/05/21 03:13:19;;;;;;;22.73;14.43;;;12.10;99.90;;;;;;5053542;28;20020;-70
2022/05/21 03:15:45;;;;;;;21.75;13.43;;;12.10;99.90;;;;;;5053373;28;20025;-70
2022/05/21 03:18:12;;;;;;;23.80;13.93;;;12.10;99.90;;;;;;5052168;28;20067;-71
2022/05/21 03:20:39;;;;;;;23.48;13.45;;;12.10;99.90;;;;;;5053391;28;20025;-71
2022/05/21 03:23:05;;;;;;;20.35;13.07;;;12.20;99.90;;;;;;5053256;28;20033;-69
2022/05/21 03:25:32;;;;;;;25.38;13.50;;;12.20;99.90;;;;;;5035405;28;20060;-69
2022/05/21 03:27:58;;;;;;;18.52;12.15;;;12.20;99.90;;;;;;5052207;28;20053;-69
2022/05/21 03:30:27;;;;;;;22.45;12.30;;;12.30;99.90;;;;;;5053693;28;20095;-69
2022/05/21 03:32:52;;;;;;;22.55;13.10;;;12.30;99.90;;;;;;5053382;28;20025;-69
2022/05/21 03:35:18;;;;;;;21.30;13.77;;;12.30;99.90;;;;;;5051933;28;20446;-69
2022/05/21 03:37:45;;;;;;;23.20;12.70;;;12.30;99.90;;;;;;5052994;28;20032;-69
2022/05/21 03:40:14;;;;;;;22.40;14.52;;;12.30;99.90;;;;;;5053083;28;20029;-69
2022/05/21 03:42:40;;;;;;;19.48;12.95;;;12.30;99.90;;;;;;5052899;28;20053;-69
2022/05/21 03:45:06;;;;;;;25.33;14.18;;;12.30;99.90;;;;;;5053170;28;20025;-69
2022/05/21 03:47:32;;;;;;;27.20;14.15;;;12.40;99.90;;;;;;5053117;28;20489;-69
2022/05/21 03:49:58;;;;;;;23.10;14.60;;;12.40;99.90;;;;;;5051731;28;20046;-69
2022/05/21 03:52:24;;;;;;;21.13;15.23;;;12.40;99.90;;;;;;5053019;28;20033;-69
2022/05/21 03:54:49;;;;;;;28.20;17.15;;;12.40;99.90;;;;;;5052965;28;20475;-69
2022/05/21 03:57:16;;;;;;;25.42;16.38;;;12.50;99.90;;;;;;5035060;28;20029;-69
2022/05/21 03:59:42;;;;;;;26.00;17.15;;;12.50;99.90;;;;;;5051757;28;20388;-69
2022/05/21 04:02:09;;;;;;;35.45;23.10;;;12.50;99.90;;;;;;5053112;28;20029;-69
2022/05/21 04:04:34;;;;;;;35.75;24.60;;;12.50;99.90;;;;;;5051743;28;20021;-69
2022/05/21 04:07:00;;;;;;;36.00;25.10;;;12.50;99.90;;;;;;5052896;28;20403;-69
2022/05/21 04:09:29;;;;;;;38.33;25.55;;;12.50;99.90;;;;;;5052854;28;20126;-69
2022/05/21 04:11:56;;;;;;;42.53;27.23;;;12.50;99.90;;;;;;5051596;28;20052;-69
2022/05/21 04:14:31;;;;;;;42.78;28.98;;;12.50;99.90;;;;;;5051715;28;20024;-69
2022/05/21 04:16:59;;;;;;;43.63;30.73;;;12.50;99.90;;;;;;5051705;28;20021;-69
2022/05/21 04:19:25;;;;;;;43.03;32.55;;;12.50;99.90;;;;;;5051551;28;20028;-69
2022/05/21 04:21:51;;;;;;;44.10;31.67;;;12.50;99.90;;;;;;5052694;28;20029;-69
2022/05/21 04:24:17;;;;;;;43.45;32.63;;;12.50;99.90;;;;;;5052628;28;20031;-69
2022/05/21 04:26:43;;;;;;;42.05;32.33;;;12.50;99.90;;;;;;5052676;28;20103;-69
2022/05/21 04:29:10;;;;;;;43.42;30.83;;;12.50;99.90;;;;;;5052570;28;20017;-68
2022/05/21 04:31:36;;;;;;;41.50;31.15;;;12.50;99.90;;;;;;5052598;28;20021;-69
2022/05/21 04:34:01;;;;;;;41.15;32.10;;;12.60;99.90;;;;;;5052585;28;20036;-69
2022/05/21 04:36:27;;;;;;;40.40;30.17;;;12.50;99.90;;;;;;5052655;28;20032;-69
2022/05/21 04:38:53;;;;;;;48.45;32.72;;;12.60;99.90;;;;;;5051473;28;20029;-69
2022/05/21 04:41:20;;;;;;;43.85;31.98;;;12.60;99.90;;;;;;5052250;28;20110;-69
2022/05/21 04:43:46;;;;;;;39.00;30.20;;;12.60;99.90;;;;;;5052516;28;20021;-69
2022/05/21 04:46:12;;;;;;;43.58;31.88;;;12.60;99.90;;;;;;5051381;28;20025;-69
2022/05/21 04:48:38;;;;;;;47.92;33.65;;;12.60;99.90;;;;;;5052819;28;20026;-69
2022/05/21 04:51:04;;;;;;;44.13;32.08;;;12.60;99.90;;;;;;5056223;28;20434;-69
2022/05/21 04:53:30;;;;;;;52.78;32.90;;;12.60;99.90;;;;;;5056049;28;20100;-69
2022/05/21 04:55:56;;;;;;;46.15;32.60;;;12.60;99.90;;;;;;5056103;28;20071;-69
2022/05/21 04:58:22;;;;;;;50.10;32.28;;;12.60;99.90;;;;;;5055945;28;20030;-69
2022/05/21 05:00:47;;;;;;;42.47;29.38;;;12.60;99.90;;;;;;5054657;28;20025;-69
2022/05/21 05:03:15;;;;;;;49.30;30.77;;;12.60;99.90;;;;;;5055753;28;20017;-69
2022/05/21 05:05:42;;;;;;;46.22;29.88;;;12.50;99.90;;;;;;5054651;28;20029;-69
2022/05/21 05:08:09;;;;;;;39.53;28.48;;;12.50;99.90;;;;;;5055789;28;20032;-69
2022/05/21 05:10:36;;;;;;;39.78;26.98;;;12.50;99.90;;;;;;5054457;28;20112;-69
2022/05/21 05:13:03;;;;;;;41.22;27.75;;;12.60;99.90;;;;;;5055680;28;20025;-69
2022/05/21 05:15:28;;;;;;;38.42;27.45;;;12.50;99.90;;;;;;5054485;28;20024;-70
2022/05/21 05:18:00;;;;;;;41.38;26.27;;;12.60;99.90;;;;;;5055662;28;20029;-70
2022/05/21 05:20:26;;;;;;;37.38;26.23;;;12.60;99.90;;;;;;5055673;28;20060;-70
2022/05/21 05:22:51;;;;;;;34.42;25.38;;;12.60;99.90;;;;;;5054112;28;20105;-70
2022/05/21 05:25:17;;;;;;;37.38;26.10;;;12.70;99.90;;;;;;5055445;28;20027;-70
2022/05/21 05:27:42;;;;;;;44.60;25.27;;;12.80;99.90;;;;;;5054130;28;20022;-70
2022/05/21 05:30:08;;;;;;;37.70;24.40;;;12.80;99.90;;;;;;5054152;28;20021;-70
2022/05/21 05:32:34;;;;;;;34.13;23.80;;;12.80;99.90;;;;;;5055328;28;20075;-70
2022/05/21 05:34:59;;;;;;;36.67;22.52;;;12.90;99.90;;;;;;5055310;28;20025;-70
2022/05/21 05:37:25;;;;;;;36.97;22.80;;;12.90;99.90;;;;;;5055309;28;20541;-70
2022/05/21 05:39:50;;;;;;;37.92;23.00;;;12.80;99.90;;;;;;5055163;28;20064;-70
2022/05/21 05:42:17;;;;;;;37.90;23.63;;;12.80;99.90;;;;;;5053718;28;20494;-70
2022/05/21 05:44:43;;;;;;;38.78;23.50;;;12.80;99.90;;;;;;5053971;28;20096;-70
2022/05/21 05:47:08;;;;;;;36.65;22.63;;;12.80;99.90;;;;;;5055178;28;20168;-70
2022/05/21 05:49:34;;;;;;;34.00;21.52;;;12.80;99.90;;;;;;5055004;28;20104;-69
2022/05/21 05:51:59;;;;;;;36.90;22.13;;;12.80;99.90;;;;;;5054902;28;20060;-70
2022/05/21 05:54:25;;;;;;;32.55;22.05;;;12.80;99.90;;;;;;5053793;28;20052;-70
2022/05/21 05:56:50;;;;;;;40.05;22.70;;;12.80;99.90;;;;;;5037003;28;20116;-70
2022/05/21 06:04:47;;;;;;;36.20;21.88;;;12.90;99.90;;;;;;5053551;28;20018;-70
2022/05/21 06:07:13;;;;;;;33.38;21.52;;;13.00;99.90;;;;;;5054673;28;20036;-70
2022/05/21 06:09:38;;;;;;;37.45;21.45;;;13.00;99.90;;;;;;5054649;28;20032;-70
2022/05/21 06:12:06;;;;;;;31.05;20.88;;;13.00;99.90;;;;;;5054666;28;20037;-70
2022/05/21 06:14:32;;;;;;;36.85;22.45;;;13.10;99.90;;;;;;5054551;28;20104;-70
2022/05/21 06:16:57;;;;;;;36.75;22.08;;;13.10;99.90;;;;;;5053194;28;20154;-70
2022/05/21 06:19:23;;;;;;;32.67;21.85;;;13.10;99.90;;;;;;5053252;28;20029;-70
2022/05/21 06:21:55;;;;;;;32.28;21.65;;;13.20;99.90;;;;;;5036461;28;20025;-70
2022/05/21 06:24:20;;;;;;;31.90;21.70;;;13.20;99.90;;;;;;5054347;28;20502;-70
2022/05/21 06:26:47;;;;;;;33.80;20.90;;;13.20;99.90;;;;;;5053089;28;20021;-70
2022/05/21 06:29:12;;;;;;;30.17;22.73;;;13.40;99.90;;;;;;5054223;28;20039;-70
2022/05/21 06:31:38;;;;;;;31.80;21.67;;;13.60;99.90;;;;;;5054163;28;20033;-70
2022/05/21 06:34:04;;;;;;;31.80;21.15;;;13.60;99.90;;;;;;5054197;28;20053;-70
2022/05/21 06:36:29;;;;;;;36.45;21.02;;;13.70;99.90;;;;;;5054169;28;20060;-70
2022/05/21 06:38:55;;;;;;;30.48;21.13;;;13.70;99.90;;;;;;5052825;28;20036;-70
2022/05/21 06:41:21;;;;;;;28.20;21.15;;;13.70;99.90;;;;;;5035965;28;20048;-70
2022/05/21 06:43:46;;;;;;;34.22;22.25;;;13.70;99.90;;;;;;5053933;28;20025;-70
2022/05/21 06:46:12;;;;;;;38.03;23.08;;;13.60;99.90;;;;;;5053888;28;20021;-70
2022/05/21 06:48:38;;;;;;;36.15;22.45;;;13.60;99.90;;;;;;5052607;28;20472;-70
2022/05/21 06:51:05;;;;;;;34.80;23.15;;;13.50;99.90;;;;;;5053902;28;20013;-70
2022/05/21 06:53:33;;;;;;;31.40;21.45;;;13.50;99.90;;;;;;5053748;28;20021;-70
2022/05/21 06:55:58;;;;;;;37.05;21.20;;;13.50;99.90;;;;;;5052572;28;20543;-70
2022/05/21 06:58:24;;;;;;;31.85;21.33;;;13.50;99.90;;;;;;5053721;28;20100;-70
2022/05/21 07:00:49;;;;;;;33.90;19.70;;;13.60;99.90;;;;;;5053631;28;20028;-70
2022/05/21 07:03:15;;;;;;;35.42;21.02;;;13.60;99.90;;;;;;5053534;28;20033;-70
2022/05/21 07:08:28;;;;;;;30.80;18.63;;;13.60;99.90;;;;;;5053362;28;20025;-70
2022/05/21 07:10:53;;;;;;;32.80;18.90;;;13.50;99.90;;;;;;5053608;28;20544;-70
2022/05/21 07:13:22;;;;;;;34.78;19.77;;;13.50;99.90;;;;;;5051728;28;20028;-70
2022/05/21 07:15:49;;;;;;;32.90;20.08;;;13.60;99.90;;;;;;5053409;28;20394;-70
2022/05/21 07:18:19;;;;;;;30.85;19.48;;;13.80;99.90;;;;;;5053347;28;20518;-70
2022/05/21 07:20:46;;;;;;;32.10;20.15;;;13.90;99.90;;;;;;5053319;28;20403;-70
2022/05/21 07:23:12;;;;;;;29.05;20.10;;;13.90;99.90;;;;;;5052016;28;20059;-70
2022/05/21 07:25:40;;;;;;;27.52;16.95;;;14.00;99.90;;;;;;5053351;28;20021;-69
2022/05/21 07:28:07;;;;;;;29.20;18.83;;;14.20;99.90;;;;;;5053231;28;20024;-69
2022/05/21 07:30:46;;;;;;;25.02;16.23;;;14.20;99.90;;;;;;5052210;28;20025;-69
2022/05/21 07:33:15;;;;;;;24.50;17.40;;;14.30;99.90;;;;;;5052056;28;20021;-69
2022/05/21 07:35:40;;;;;;;25.92;17.65;;;14.30;99.90;;;;;;5051992;28;20487;-71
2022/05/21 07:38:08;;;;;;;24.00;17.45;;;14.40;99.90;;;;;;5053129;28;20021;-70
2022/05/21 07:40:38;;;;;;;27.27;17.02;;;14.40;99.90;;;;;;5051583;28;20021;-72
2022/05/21 07:43:22;;;;;;;26.77;17.20;;;14.60;99.90;;;;;;5053017;28;20102;-70
2022/05/21 07:45:49;;;;;;;;;;;14.60;99.90;;;;;;5052370;28;20023;-70
2022/05/21 07:48:18;;;;;;;30.25;16.50;;;14.80;99.90;;;;;;5051652;28;19916;-70
2022/05/21 07:50:48;;;;;;;26.30;17.20;;;14.90;99.90;;;;;;5051704;28;20071;-71
2022/05/21 07:53:19;;;;;;;25.23;17.15;;;14.90;99.90;;;;;;5052938;28;20108;-71
2022/05/21 07:55:48;;;;;;;27.88;18.23;;;14.70;99.90;;;;;;5052939;28;20035;-71
2022/05/21 07:58:14;;;;;;;25.90;17.98;;;14.70;99.90;;;;;;5052906;28;20364;-70
2022/05/21 08:00:40;;;;;;;31.33;19.75;;;14.50;99.90;;;;;;5052847;28;20032;-70
2022/05/21 08:03:08;;;;;;;35.95;19.90;;;14.30;99.90;;;;;;5051552;28;20110;-70
2022/05/21 08:05:34;;;;;;;26.98;18.17;;;14.20;99.90;;;;;;5035184;28;20021;-70
2022/05/21 08:07:59;;;;;;;30.02;19.08;;;14.30;99.90;;;;;;5052874;28;20053;-70
2022/05/21 08:10:25;;;;;;;28.45;19.80;;;14.40;99.90;;;;;;5052868;28;20021;-71
2022/05/21 08:12:51;;;;;;;28.00;19.40;;;14.30;99.90;;;;;;5052767;28;20029;-70
2022/05/21 08:15:18;;;;;;;29.13;20.77;;;14.40;99.90;;;;;;5051582;28;20033;-71
2022/05/21 08:17:43;;;;;;;28.67;18.60;;;14.40;99.90;;;;;;5051622;28;20479;-70
2022/05/21 08:20:11;;;;;;;32.67;19.27;;;14.50;99.90;;;;;;5051678;28;20027;-71
2022/05/21 08:28:09;;;;;;;32.75;18.50;;;14.50;99.90;;;;;;5055536;28;20104;-70
2022/05/21 08:30:35;;;;;;;31.58;17.63;;;14.50;99.90;;;;;;5055178;28;20458;-70
2022/05/21 08:33:01;;;;;;;27.95;17.17;;;14.40;99.90;;;;;;5055302;28;20029;-70
2022/05/21 08:35:27;;;;;;;25.17;16.50;;;14.30;99.90;;;;;;5056459;28;20047;-69
2022/05/21 08:37:53;;;;;;;22.83;15.65;;;14.40;99.90;;;;;;5056385;28;20451;-70
2022/05/21 08:40:19;;;;;;;31.52;16.85;;;14.50;99.90;;;;;;5054854;28;20049;-69
2022/05/21 08:42:58;;;;;;;27.13;15.68;;;14.50;99.90;;;;;;5038135;28;20049;-70
2022/05/21 08:45:39;;;;;;;28.48;16.77;;;14.40;99.90;;;;;;5056195;28;20021;-70
2022/05/21 08:48:09;;;;;;;28.45;16.27;;;14.50;99.90;;;;;;5056192;28;20059;-70
2022/05/21 08:50:37;;;;;;;29.42;15.77;;;14.60;99.90;;;;;;5054967;28;20013;-70
2022/05/21 08:53:07;;;;;;;28.60;15.93;;;14.70;99.90;;;;;;5054840;28;20029;-70
2022/05/21 08:55:38;;;;;;;22.10;14.10;;;14.70;99.90;;;;;;5056045;28;20028;-70
2022/05/21 08:58:16;;;;;;;23.25;14.07;;;14.90;99.90;;;;;;5055972;28;20039;-71
2022/05/21 09:00:45;;;;;;;20.75;13.27;;;15.10;99.90;;;;;;5055947;28;20031;-70
2022/05/21 09:03:14;;;;;;;21.20;14.05;;;15.30;99.90;;;;;;5055780;28;20032;-70
2022/05/21 09:05:44;;;;;;;19.55;13.10;;;15.30;99.90;;;;;;5054714;28;20107;-70
2022/05/21 09:08:22;;;;;;;22.83;13.95;;;15.40;99.90;;;;;;5055757;28;20387;-71
2022/05/21 09:11:06;;;;;;;21.27;13.00;;;15.90;99.90;;;;;;5055717;28;20483;-71
2022/05/21 09:13:59;;;;;;;30.55;14.35;;;15.80;99.90;;;;;;5055776;28;20025;-70
2022/05/21 09:16:55;;;;;;;20.90;14.60;;;15.70;99.90;;;;;;5055605;28;20139;-70
2022/05/21 09:19:10;;;;;;;22.02;15.68;;;15.90;99.90;;;;;;5055463;28;20056;-70
2022/05/21 09:21:46;;;;;;;26.00;16.33;;;15.80;99.90;;;;;;5055397;28;20479;-71
2022/05/21 09:24:33;;;;;;;29.85;16.30;;;16.10;99.90;;;;;;5054184;28;20036;-70
2022/05/21 09:26:59;;;;;;;25.73;15.85;;;16.30;99.90;;;;;;5054577;28;20499;-70
2022/05/21 09:29:27;;;;;;;24.88;15.90;;;16.50;99.90;;;;;;5054154;28;20120;-70
2022/05/21 09:31:54;;;;;;;21.75;14.00;;;16.90;99.90;;;;;;5054219;28;20360;-70
2022/05/21 09:34:32;;;;;;;28.92;14.40;;;17.10;99.90;;;;;;5053714;28;20029;-70
2022/05/21 09:37:00;;;;;;;24.55;15.27;;;17.00;99.90;;;;;;5055110;28;20112;-70
2022/05/21 09:39:38;;;;;;;25.23;15.32;;;16.90;99.90;;;;;;5053956;28;20043;-70
2022/05/21 09:47:32;;;;;;;28.80;18.58;;;15.90;99.90;;;;;;5110767;28;20024;-69
2022/05/21 09:50:00;;;;;;;26.95;17.27;;;16.20;99.90;;;;;;5110965;28;20016;-70
2022/05/21 09:52:30;;;;;;;29.10;17.35;;;16.70;99.90;;;;;;5109717;28;20027;-70
2022/05/21 09:54:55;;;;;;;26.48;17.08;;;16.70;99.90;;;;;;5109748;28;20040;-70
2022/05/21 09:57:33;;;;;;;23.92;16.17;;;16.50;99.90;;;;;;5110701;28;20359;-70
2022/05/21 10:00:21;;;;;;;22.45;16.42;;;16.20;99.90;;;;;;5110682;28;20080;-70
2022/05/21 10:02:56;;;;;;;23.95;14.73;;;16.10;99.90;;;;;;5109346;28;20059;-70
2022/05/21 10:05:35;;;;;;;21.63;14.45;;;17.00;99.90;;;;;;5110739;28;20016;-72
2022/05/21 10:11:07;;;;;;;22.30;14.05;;;17.50;99.90;;;;;;5110851;28;20069;-70
2022/05/21 10:13:41;;;;;;;18.35;12.73;;;17.60;99.90;;;;;;5110676;28;20557;-70
2022/05/21 10:16:31;;;;;;;16.50;12.50;;;17.70;99.90;;;;;;5109283;28;20028;-72
2022/05/21 10:19:11;;;;;;;18.23;11.00;;;17.90;99.90;;;;;;5092191;28;20034;-71
2022/05/21 10:21:57;;;;;;;16.90;11.43;;;18.40;99.90;;;;;;5092270;28;20028;-72
2022/05/21 10:25:03;;;;;;;21.65;13.07;;;18.40;99.90;;;;;;5092028;28;20052;-70
2022/05/21 10:28:08;;;;;;;19.90;12.68;;;17.80;99.90;;;;;;5108956;28;20032;-70
2022/05/21 10:31:00;;;;;;;20.85;12.95;;;17.10;99.90;;;;;;5108739;28;20548;-70
2022/05/21 10:33:52;;;;;;;26.05;12.27;;;17.00;99.90;;;;;;5109990;28;20023;-70
2022/05/21 10:36:50;;;;;;;17.92;11.98;;;17.00;99.90;;;;;;5108810;28;20019;-70
2022/05/21 10:39:55;;;;;;;21.65;12.40;;;17.00;99.90;;;;;;5108618;28;20024;-69
2022/05/21 10:42:33;;;;;;;16.90;11.77;;;16.80;99.90;;;;;;5109638;28;20027;-70
2022/05/21 10:45:16;;;;;;;27.63;12.80;;;16.80;99.90;;;;;;5109948;28;20097;-70
2022/05/21 10:48:22;;;;;;;20.98;12.10;;;16.80;99.90;;;;;;5109956;28;20374;-70
2022/05/21 10:51:13;;;;;;;19.67;12.23;;;17.00;99.90;;;;;;5109677;28;20028;-70
2022/05/21 10:53:58;;;;;;;17.88;11.65;;;16.90;99.90;;;;;;5109670;28;20020;-70
2022/05/21 10:56:45;;;;;;;21.33;11.77;;;16.80;99.90;;;;;;5094530;28;20024;-70
2022/05/21 10:59:42;;;;;;;23.92;13.25;;;16.50;99.90;;;;;;5095951;28;20028;-70
2022/05/21 11:02:31;;;;;;;20.73;11.85;;;16.30;99.90;;;;;;5094783;28;20103;-70
2022/05/21 11:05:29;;;;;;;19.23;11.80;;;16.30;99.90;;;;;;5094697;28;20028;-70
2022/05/21 11:08:05;;;;;;;23.13;11.85;;;16.80;99.90;;;;;;5095790;28;20024;-70
2022/05/21 11:10:44;;;;;;;20.85;12.18;;;17.20;99.90;;;;;;5096015;28;20024;-70
2022/05/21 11:13:17;;;;;;;20.60;12.18;;;17.20;99.90;;;;;;5078785;28;20029;-70
2022/05/21 11:16:12;;;;;;;19.55;12.73;;;17.30;99.90;;;;;;5095839;28;20028;-70
2022/05/21 11:18:59;;;;;;;21.08;12.15;;;17.20;99.90;;;;;;5095646;28;20152;-71
2022/05/21 11:21:33;;;;;;;24.35;12.10;;;16.90;99.90;;;;;;5094662;28;20031;-70
2022/05/21 11:24:18;;;;;;;24.13;13.25;;;16.60;99.90;;;;;;5095682;28;20064;-70
2022/05/21 11:26:54;;;;;;;21.08;12.48;;;16.50;99.90;;;;;;5095603;28;20032;-70
2022/05/21 11:29:46;;;;;;;18.77;12.98;;;16.60;99.90;;;;;;5094394;28;20059;-70
2022/05/21 11:38:27;;;;;;;25.40;12.65;;;16.70;99.90;;;;;;5095087;28;20046;-71
2022/05/21 11:41:33;;;;;;;19.17;11.90;;;16.70;99.90;;;;;;5077227;28;20027;-70
2022/05/21 11:50:14;;;;;;;19.20;12.13;;;17.00;99.90;;;;;;5111201;27;20347;-70
2022/05/21 11:55:22;;;;;;;19.35;12.25;;;17.30;99.90;;;;;;5111058;27;20299;-70
2022/05/21 12:03:15;;;;;;;20.67;12.43;;;17.30;99.90;;;;;;5111161;27;20661;-70
2022/05/21 12:05:49;;;;;;;19.85;11.85;;;17.70;99.90;;;;;;5111079;28;20051;-71
2022/05/21 12:08:37;;;;;;;22.13;12.65;;;18.10;99.90;;;;;;5111007;28;20500;-70
2022/05/21 12:11:34;;;;;;;17.98;11.15;;;18.10;99.90;;;;;;5111044;28;20012;-70
2022/05/21 12:14:25;;;;;;;17.65;12.23;;;17.90;99.90;;;;;;5110879;28;20110;-70
2022/05/21 12:16:57;;;;;;;22.23;12.18;;;17.60;99.90;;;;;;5093509;28;20024;-70
2022/05/21 12:22:39;;;;;;;19.52;12.13;;;16.90;99.90;;;;;;5111169;27;20177;-69
2022/05/21 12:25:08;;;;;;;19.45;12.02;;;16.90;99.90;;;;;;5092740;28;20096;-69
2022/05/21 12:27:49;;;;;;;22.50;12.40;;;16.80;99.90;;;;;;5111008;28;20016;-69
2022/05/21 12:30:25;;;;;;;21.58;10.82;;;17.00;99.90;;;;;;5110901;28;20032;-69
2022/05/21 12:32:51;;;;;;;19.25;11.20;;;17.00;99.90;;;;;;5109742;28;20488;-69
2022/05/21 12:35:46;;;;;;;14.65;10.18;;;17.20;99.90;;;;;;5092546;28;20028;-70
2022/05/21 12:38:29;;;;;;;19.42;10.77;;;17.40;99.90;;;;;;5109273;28;20023;-70
2022/05/21 12:41:05;;;;;;;18.30;10.50;;;17.60;99.90;;;;;;5110712;28;20028;-69
2022/05/21 12:43:47;;;;;;;16.67;10.65;;;17.60;99.90;;;;;;5110682;28;20031;-70
2022/05/21 12:46:24;;;;;;;17.90;9.90;;;17.50;99.90;;;;;;5092593;28;20019;-70
2022/05/21 12:48:50;;;;;;;19.08;10.00;;;17.70;99.90;;;;;;5110574;28;20505;-70
2022/05/21 12:51:36;;;;;;;24.33;10.13;;;17.60;99.90;;;;;;5092334;28;20030;-70
2022/05/21 12:54:05;;;;;;;16.85;7.88;;;17.60;99.90;;;;;;5110550;28;20027;-70
2022/05/21 12:56:36;;;;;;;18.35;7.88;;;17.60;99.90;;;;;;5092227;28;20024;-70
2022/05/21 12:59:23;;;;;;;14.20;7.47;;;17.70;99.90;;;;;;5110496;28;20031;-70
2022/05/21 13:02:13;;;;;;;19.75;8.07;;;17.70;99.90;;;;;;5110295;28;20035;-70
2022/05/21 13:04:42;;;;;;;13.52;7.72;;;17.60;99.90;;;;;;5108848;28;20545;-70
2022/05/21 13:07:27;;;;;;;16.10;7.55;;;18.10;99.90;;;;;;5108915;28;20073;-70
2022/05/21 13:10:00;;;;;;;16.23;8.02;;;18.50;99.90;;;;;;5108883;28;20070;-70
2022/05/21 13:12:31;;;;;;;;;;;18.60;99.90;;;;;;5109322;28;20115;-70
2022/05/21 13:14:57;;;;;;;14.13;7.90;;;18.30;99.90;;;;;;5110045;28;19911;-70
2022/05/21 13:17:35;;;;;;;23.90;9.50;;;18.30;99.90;;;;;;5110050;28;20474;-70
2022/05/21 13:20:28;;;;;;;11.13;7.00;;;18.20;99.90;;;;;;5108545;28;20115;-70
2022/05/21 13:23:20;;;;;;;11.20;6.55;;;18.00;99.90;;;;;;5110014;28;20016;-70
2022/05/21 13:25:54;;;;;;;13.75;6.13;;;18.00;99.90;;;;;;5109743;28;20434;-70
2022/05/21 13:28:24;;;;;;;15.40;7.07;;;18.30;99.90;;;;;;5108703;28;20020;-70
2022/05/21 13:30:51;;;;;;;13.02;7.13;;;18.80;99.90;;;;;;5108620;28;20391;-70
2022/05/21 13:33:44;;;;;;;16.08;7.38;;;18.70;99.90;;;;;;5097344;28;20016;-70
2022/05/21 13:36:14;;;;;;;14.02;7.30;;;18.70;99.90;;;;;;5094931;28;20024;-70